Time;durP1;ratioP1;P1;durP2;ratioP2;P2;SDS_P1;SDS_P2;PMS_P1;PMS_P2;Temp;Humidity;BMP_temperature;BMP_pressure;BME280_temperature;BME280_humidity;BME280_pressure;Samples;Min_cycle;Max_cycle;Signal;HPM_P1;HPM_P2
2022/05/17 00:01:32;;;;;;;9.27;3.33;;;;;;;-145.45;100.00;62759.84;5313696;28;20944;-77
2022/05/17 00:04:04;;;;;;;11.00;4.43;;;;;;;-145.45;100.00;62759.84;5310834;28;20064;-77
2022/05/17 00:06:36;;;;;;;7.35;3.33;;;;;;;-145.45;100.00;62759.84;5309300;28;20848;-76
2022/05/17 00:09:07;;;;;;;11.02;4.05;;;;;;;-145.45;100.00;62759.84;5313021;27;20083;-77
2022/05/17 00:11:38;;;;;;;9.13;4.35;;;;;;;-145.45;100.00;62759.84;5312341;28;20679;-77
2022/05/17 00:14:11;;;;;;;11.02;4.90;;;;;;;-145.45;100.00;62759.84;5312908;28;20082;-77
2022/05/17 00:16:45;;;;;;;9.20;4.00;;;;;;;-145.45;100.00;62759.84;5312926;28;20873;-77
2022/05/17 00:19:19;;;;;;;11.27;4.25;;;;;;;-145.45;100.00;62759.84;5311803;28;20072;-77
2022/05/17 00:21:51;;;;;;;13.98;4.57;;;;;;;-145.45;100.00;62759.84;5313455;28;20106;-77
2022/05/17 00:24:25;;;;;;;13.45;4.80;;;;;;;-145.45;100.00;62759.84;5292667;28;20032;-77
2022/05/17 00:26:56;;;;;;;10.40;4.72;;;;;;;-145.45;100.00;62759.84;5310264;28;20410;-77
2022/05/17 00:29:27;;;;;;;8.70;4.47;;;;;;;-145.45;100.00;62759.84;5312723;28;20077;-77
2022/05/17 00:31:59;;;;;;;11.80;5.07;;;;;;;-145.45;100.00;62759.84;5289044;28;20044;-77
2022/05/17 00:34:31;;;;;;;11.80;5.00;;;;;;;-145.45;100.00;62759.84;5295954;28;20457;-77
2022/05/17 00:37:02;;;;;;;14.13;5.65;;;;;;;-145.45;100.00;62759.84;5308099;28;20032;-77
2022/05/17 00:39:33;;;;;;;10.25;5.53;;;;;;;-145.45;100.00;62759.84;5311420;28;20031;-77
2022/05/17 00:42:06;;;;;;;16.25;5.20;;;;;;;-145.45;100.00;62759.84;5309472;28;20033;-77
2022/05/17 00:44:43;;;;;;;14.05;5.28;;;;;;;-145.45;100.00;62759.84;5315718;28;20024;-77
2022/05/17 00:47:32;;;;;;;14.82;5.05;;;;;;;-145.45;100.00;62759.84;5316780;28;20426;-77
2022/05/17 00:50:07;;;;;;;12.00;5.13;;;;;;;-145.45;100.00;62759.84;5312090;28;20032;-77
2022/05/17 00:52:40;;;;;;;6.72;4.43;;;;;;;-145.45;100.00;62759.84;5308542;28;20055;-77
2022/05/17 00:55:17;;;;;;;9.82;5.30;;;;;;;-145.45;100.00;62759.84;5317287;28;20035;-76
2022/05/17 00:58:02;;;;;;;10.43;4.55;;;;;;;-145.45;100.00;62759.84;5313301;28;20031;-76
2022/05/17 01:00:42;;;;;;;7.03;3.58;;;;;;;-145.45;100.00;62759.84;5312762;28;20483;-76
2022/05/17 01:03:17;;;;;;;12.10;4.78;;;;;;;-145.45;100.00;62759.84;5305951;28;20044;-76
2022/05/17 01:05:54;;;;;;;10.20;4.40;;;;;;;-145.45;100.00;62759.84;5304590;28;20027;-76
2022/05/17 01:08:28;;;;;;;10.60;4.32;;;;;;;-145.45;100.00;62759.84;5314019;27;20052;-77
2022/05/17 01:10:59;;;;;;;9.30;4.28;;;;;;;-145.45;100.00;62759.84;5293146;28;20511;-77
2022/05/17 01:16:21;;;;;;;10.48;3.75;;;;;;;-145.45;100.00;62759.84;5311196;28;20036;-76
2022/05/17 01:18:53;;;;;;;12.88;4.10;;;;;;;-145.45;100.00;62759.84;5312349;28;20029;-76
2022/05/17 01:21:24;;;;;;;10.30;3.70;;;;;;;-145.45;100.00;62759.84;5311525;28;20035;-76
2022/05/17 01:23:55;;;;;;;9.43;3.33;;;;;;;-145.45;100.00;62759.84;5308531;28;24992;-76
2022/05/17 01:26:30;;;;;;;12.15;4.38;;;;;;;-145.45;100.00;62759.84;5312692;28;20037;-77
2022/05/17 01:29:02;;;;;;;10.70;4.65;;;;;;;-145.45;100.00;62759.84;5314944;28;20038;-77
2022/05/17 01:31:35;;;;;;;8.40;4.07;;;;;;;-145.45;100.00;62759.84;5311711;28;20044;-77
2022/05/17 01:34:08;;;;;;;8.98;4.22;;;;;;;-145.45;100.00;62759.84;5289904;28;20031;-77
2022/05/17 01:36:40;;;;;;;12.85;4.85;;;;;;;-145.45;100.00;62759.84;5292034;28;20040;-77
2022/05/17 01:39:11;;;;;;;10.60;4.75;;;;;;;-145.45;100.00;62759.84;5291389;28;20039;-77
2022/05/17 01:41:43;;;;;;;10.48;4.78;;;;;;;-145.45;100.00;62759.84;5309166;28;20028;-77
2022/05/17 01:44:14;;;;;;;9.63;4.63;;;;;;;-145.45;100.00;62759.84;5310067;28;20396;-77
2022/05/17 01:46:45;;;;;;;7.78;4.50;;;;;;;-145.45;100.00;62759.84;5308199;28;20040;-77
2022/05/17 01:49:17;;;;;;;10.23;4.22;;;;;;;-145.45;100.00;62759.84;5291041;28;20177;-77
2022/05/17 01:51:48;;;;;;;10.20;5.10;;;;;;;-145.45;100.00;62759.84;5311242;28;20035;-77
2022/05/17 01:54:19;;;;;;;12.73;4.70;;;;;;;-145.45;100.00;62759.84;5310972;28;20025;-77
2022/05/17 01:56:51;;;;;;;8.50;3.97;;;;;;;-145.45;100.00;62759.84;5312452;28;20114;-77
2022/05/17 01:59:22;;;;;;;6.90;4.15;;;;;;;-145.45;100.00;62759.84;5311862;28;40304;-77
2022/05/17 02:01:54;;;;;;;10.35;4.25;;;;;;;-145.45;100.00;62759.84;5310457;28;20031;-77
2022/05/17 02:04:25;;;;;;;9.82;4.10;;;;;;;-145.45;100.00;62759.84;5308366;28;20035;-77
2022/05/17 02:06:56;;;;;;;6.28;3.97;;;;;;;-145.45;100.00;62759.84;5311812;27;20691;-77
2022/05/17 02:09:28;;;;;;;9.70;4.13;;;;;;;-145.45;100.00;62759.84;5312884;27;20056;-77
2022/05/17 02:11:59;;;;;;;9.23;4.47;;;;;;;-145.45;100.00;62759.84;5297341;28;20032;-77
2022/05/17 02:14:30;;;;;;;9.32;3.78;;;;;;;-145.45;100.00;62759.84;5292472;28;20539;-77
2022/05/17 02:17:02;;;;;;;11.45;4.78;;;;;;;-145.45;100.00;62759.84;5313968;28;20024;-77
2022/05/17 02:19:33;;;;;;;10.45;3.90;;;;;;;-145.45;100.00;62759.84;5295168;28;21487;-77
2022/05/17 02:22:05;;;;;;;9.00;4.18;;;;;;;-145.45;100.00;62759.84;5315994;28;20102;-77
2022/05/17 02:24:36;;;;;;;7.80;4.63;;;;;;;-145.45;100.00;62759.84;5318164;28;20056;-77
2022/05/17 02:27:07;;;;;;;8.48;4.18;;;;;;;-145.45;100.00;62759.84;5312705;28;20035;-77
2022/05/17 02:29:39;;;;;;;13.00;4.75;;;;;;;-145.45;100.00;62759.84;5302199;28;20024;-77
2022/05/17 02:32:11;;;;;;;5.28;3.03;;;;;;;-145.45;100.00;62759.84;5317776;28;20047;-77
2022/05/17 02:34:43;;;;;;;9.30;4.22;;;;;;;-145.45;100.00;62759.84;5320862;28;20468;-77
2022/05/17 02:37:15;;;;;;;9.18;4.05;;;;;;;-145.45;100.00;62759.84;5318524;28;20021;-77
2022/05/17 02:39:46;;;;;;;11.13;4.97;;;;;;;-145.45;100.00;62759.84;5320461;28;20027;-76
2022/05/17 02:42:20;;;;;;;8.80;3.92;;;;;;;-145.45;100.00;62759.84;5316417;28;20037;-76
2022/05/17 02:44:51;;;;;;;11.25;4.80;;;;;;;-145.45;100.00;62759.84;5318047;28;20093;-76
2022/05/17 02:47:23;;;;;;;7.18;3.92;;;;;;;-145.45;100.00;62759.84;5315815;28;20025;-77
2022/05/17 02:49:54;;;;;;;8.13;3.75;;;;;;;-145.45;100.00;62759.84;5315353;28;20035;-76
2022/05/17 02:52:25;;;;;;;8.80;4.05;;;;;;;-145.45;100.00;62759.84;5314364;28;20098;-76
2022/05/17 02:54:57;;;;;;;7.00;3.70;;;;;;;-145.45;100.00;62759.84;5320801;28;20488;-76
2022/05/17 02:57:28;;;;;;;11.55;4.68;;;;;;;-145.45;100.00;62759.84;5296410;28;21282;-76
2022/05/17 03:00:00;;;;;;;9.45;4.05;;;;;;;-145.45;100.00;62759.84;5316730;28;20498;-77
2022/05/17 03:02:31;;;;;;;11.40;4.60;;;;;;;-145.45;100.00;62759.84;5294164;28;20115;-77
2022/05/17 03:05:03;;;;;;;5.55;4.43;;;;;;;-145.45;100.00;62759.84;5300799;28;20024;-76
2022/05/17 03:07:34;;;;;;;8.88;4.90;;;;;;;-145.45;100.00;62759.84;5314860;28;20037;-76
2022/05/17 03:10:06;;;;;;;9.30;4.32;;;;;;;-145.45;100.00;62759.84;5298750;28;20376;-77
2022/05/17 03:12:37;;;;;;;10.05;4.32;;;;;;;-145.45;100.00;62759.84;5313867;28;20104;-77
2022/05/17 03:15:10;;;;;;;11.10;4.47;;;;;;;-145.45;100.00;62759.84;5299071;28;20016;-76
2022/05/17 03:17:41;;;;;;;9.80;4.93;;;;;;;-145.45;100.00;62759.84;5314632;28;20035;-76
2022/05/17 03:20:12;;;;;;;13.10;4.20;;;;;;;-145.45;100.00;62759.84;5318548;28;20036;-77
2022/05/17 03:22:44;;;;;;;5.68;3.78;;;;;;;-145.45;100.00;62759.84;5313573;28;26268;-77
2022/05/17 03:25:15;;;;;;;7.75;4.10;;;;;;;-145.45;100.00;62759.84;5297628;28;20024;-77
2022/05/17 03:27:46;;;;;;;9.60;3.50;;;;;;;-145.45;100.00;62759.84;5316130;28;20027;-77
2022/05/17 03:30:19;;;;;;;7.13;3.20;;;;;;;-145.45;100.00;62759.84;5318588;28;20098;-76
2022/05/17 03:32:51;;;;;;;7.82;4.32;;;;;;;-145.45;100.00;62759.84;5317316;28;20503;-76
2022/05/17 03:35:23;;;;;;;5.70;3.67;;;;;;;-145.45;100.00;62759.84;5299200;28;20047;-76
2022/05/17 03:37:54;;;;;;;9.13;3.50;;;;;;;-145.45;100.00;62759.84;5317619;28;20379;-76
2022/05/17 03:40:25;;;;;;;9.52;4.55;;;;;;;-145.45;100.00;62759.84;5311158;28;20154;-76
2022/05/17 03:42:57;;;;;;;7.93;4.30;;;;;;;-145.45;100.00;62759.84;5300027;28;20036;-76
2022/05/17 03:45:28;;;;;;;8.30;4.22;;;;;;;-145.45;100.00;62759.84;5314984;28;20040;-76
2022/05/17 03:47:59;;;;;;;12.45;4.93;;;;;;;-145.45;100.00;62759.84;5315736;28;20854;-76
2022/05/17 03:50:30;;;;;;;9.77;4.65;;;;;;;-145.45;100.00;62759.84;5319594;28;20119;-76
2022/05/17 03:53:03;;;;;;;9.45;4.45;;;;;;;-145.45;100.00;62759.84;5313905;27;20036;-76
2022/05/17 03:55:35;;;;;;;9.00;4.63;;;;;;;-145.45;100.00;62759.84;5314232;28;20052;-76
2022/05/17 03:58:06;;;;;;;10.02;4.82;;;;;;;-145.45;100.00;62759.84;5311624;28;20481;-77
2022/05/17 04:00:37;;;;;;;7.75;3.90;;;;;;;-145.45;100.00;62759.84;5316400;28;20027;-77
2022/05/17 04:03:09;;;;;;;7.70;3.55;;;;;;;-145.45;100.00;62759.84;5312086;28;20027;-77
2022/05/17 04:05:40;;;;;;;7.53;4.20;;;;;;;-145.45;100.00;62759.84;5312589;28;20020;-77
2022/05/17 04:08:12;;;;;;;11.95;5.07;;;;;;;-145.45;100.00;62759.84;5275773;27;1069624;-77
2022/05/17 04:10:43;;;;;;;9.40;3.92;;;;;;;-145.45;100.00;62759.84;5312932;28;20036;-77
2022/05/17 04:13:17;;;;;;;9.13;4.13;;;;;;;-145.45;100.00;62759.84;5313725;28;20148;-77
2022/05/17 04:15:48;;;;;;;10.55;4.43;;;;;;;-145.45;100.00;62759.84;5316705;28;20107;-77
2022/05/17 04:18:20;;;;;;;15.13;4.93;;;;;;;-145.45;100.00;62759.84;5312935;28;20020;-77
2022/05/17 04:20:56;;;;;;;8.52;4.00;;;;;;;-145.45;100.00;62759.84;5315510;28;20027;-77
2022/05/17 04:23:28;;;;;;;10.38;3.80;;;;;;;-145.45;100.00;62759.84;5313866;28;20558;-77
2022/05/17 04:25:59;;;;;;;10.88;4.00;;;;;;;-145.45;100.00;62759.84;5312397;28;20148;-77
2022/05/17 04:28:30;;;;;;;8.10;3.80;;;;;;;-145.45;100.00;62759.84;5311341;28;20867;-77
2022/05/17 04:31:02;;;;;;;8.45;3.33;;;;;;;-145.45;100.00;62759.84;5310396;28;20037;-77
2022/05/17 04:33:33;;;;;;;9.07;4.28;;;;;;;-145.45;100.00;62759.84;5314695;28;20024;-77
2022/05/17 04:36:04;;;;;;;5.78;2.83;;;;;;;-145.45;100.00;62759.84;5280357;28;20530;-77
2022/05/17 04:38:37;;;;;;;8.90;3.65;;;;;;;-145.45;100.00;62759.84;5308703;28;20953;-77
2022/05/17 04:41:08;;;;;;;11.02;3.42;;;;;;;-145.45;100.00;62759.84;5314147;28;20110;-77
2022/05/17 04:43:39;;;;;;;10.02;3.67;;;;;;;-145.45;100.00;62759.84;5292943;28;20523;-77
2022/05/17 04:46:11;;;;;;;12.85;3.97;;;;;;;-145.45;100.00;62759.84;5295028;28;20063;-77
2022/05/17 04:48:42;;;;;;;12.63;4.30;;;;;;;-145.45;100.00;62759.84;5312666;28;20807;-77
2022/05/17 04:51:14;;;;;;;13.85;4.72;;;;;;;-145.45;100.00;62759.84;5295754;28;20121;-77
2022/05/17 04:53:45;;;;;;;14.60;3.50;;;;;;;-145.45;100.00;62759.84;5296859;28;20097;-79
2022/05/17 04:56:16;;;;;;;17.58;4.82;;;;;;;-145.45;100.00;62759.84;5316095;28;20633;-76
2022/05/17 04:58:48;;;;;;;13.25;3.85;;;;;;;-145.45;100.00;62759.84;5311489;28;20345;-77
2022/05/17 05:01:21;;;;;;;13.43;4.20;;;;;;;-145.45;100.00;62759.84;5313989;28;20537;-76
2022/05/17 05:03:52;;;;;;;12.50;4.05;;;;;;;-145.45;100.00;62759.84;5306525;28;20032;-77
2022/05/17 05:06:23;;;;;;;10.65;3.88;;;;;;;-145.45;100.00;62759.84;5314024;28;20020;-77
2022/05/17 05:08:55;;;;;;;13.98;4.50;;;;;;;-145.45;100.00;62759.84;5310799;28;20047;-77
2022/05/17 05:11:26;;;;;;;14.63;4.78;;;;;;;-145.45;100.00;62759.84;5315662;28;20054;-76
2022/05/17 05:13:57;;;;;;;13.85;4.78;;;;;;;-145.45;100.00;62759.84;5314253;28;20031;-76
2022/05/17 05:16:29;;;;;;;13.35;3.92;;;;;;;-145.45;100.00;62759.84;5313400;28;41140;-76
2022/05/17 05:19:00;;;;;;;15.88;4.93;;;;;;;-145.45;100.00;62759.84;5311787;28;20132;-76
2022/05/17 05:21:31;;;;;;;11.18;5.28;;;;;;;-145.45;100.00;62759.84;5318756;28;20032;-76
2022/05/17 05:24:04;;;;;;;13.23;5.00;;;;;;;-145.45;100.00;62759.84;5309167;28;21235;-76
2022/05/17 05:26:35;;;;;;;13.10;4.47;;;;;;;-145.45;100.00;62759.84;5317362;28;20513;-77
2022/05/17 05:29:07;;;;;;;12.40;5.15;;;;;;;-145.45;100.00;62759.84;5311858;28;20032;-77
2022/05/17 05:31:38;;;;;;;12.88;5.35;;;;;;;-145.45;100.00;62759.84;5312367;28;20032;-76
2022/05/17 05:34:10;;;;;;;20.33;5.15;;;;;;;-145.45;100.00;62759.84;5311758;28;20103;-76
2022/05/17 05:36:41;;;;;;;15.88;4.65;;;;;;;-145.45;100.00;62759.84;5291717;28;20042;-77
2022/05/17 05:39:13;;;;;;;14.35;5.07;;;;;;;-145.45;100.00;62759.84;5292808;28;20504;-77
2022/05/17 05:41:44;;;;;;;11.82;4.55;;;;;;;-145.45;100.00;62759.84;5288787;28;20039;-77
2022/05/17 05:44:15;;;;;;;11.85;4.85;;;;;;;-145.45;100.00;62759.84;5294209;28;20463;-78
2022/05/17 05:46:47;;;;;;;14.25;4.75;;;;;;;-145.45;100.00;62759.84;5293095;28;20062;-77
2022/05/17 05:49:18;;;;;;;16.63;5.65;;;;;;;-145.45;100.00;62759.84;5312790;28;20112;-77
2022/05/17 05:51:49;;;;;;;12.15;6.45;;;;;;;-145.45;100.00;62759.84;5314225;28;29228;-77
2022/05/17 05:54:20;;;;;;;13.07;6.40;;;;;;;-145.45;100.00;62759.84;5312147;28;20036;-77
2022/05/17 05:56:52;;;;;;;11.52;5.72;;;;;;;-145.45;100.00;62759.84;5313495;27;20515;-77
2022/05/17 05:59:23;;;;;;;17.92;5.97;;;;;;;-145.45;100.00;62759.84;5295974;28;20020;-77
2022/05/17 06:01:55;;;;;;;15.80;5.90;;;;;;;-145.45;100.00;62759.84;5319027;27;20020;-77
2022/05/17 06:04:29;;;;;;;13.20;5.78;;;;;;;-145.45;100.00;62759.84;5298714;27;20078;-77
2022/05/17 06:07:01;;;;;;;15.93;5.97;;;;;;;-145.45;100.00;62759.84;5290795;27;20028;-77
2022/05/17 06:09:32;;;;;;;11.85;5.78;;;;;;;-145.45;100.00;62759.84;5310601;27;20052;-77
2022/05/17 06:12:04;;;;;;;24.33;6.82;;;;;;;-145.45;100.00;62759.84;5323027;28;20044;-77
2022/05/17 06:14:35;;;;;;;15.60;5.97;;;;;;;-145.45;100.00;62759.84;5323814;28;20031;-77
2022/05/17 06:17:09;;;;;;;15.30;6.80;;;;;;;-145.45;100.00;62759.84;5323697;28;20077;-77
2022/05/17 06:19:41;;;;;;;24.80;7.13;;;;;;;-145.45;100.00;62759.84;5305065;28;20101;-77
2022/05/17 06:22:12;;;;;;;14.13;6.07;;;;;;;-145.45;100.00;62759.84;5324048;28;20028;-78
2022/05/17 06:24:45;;;;;;;16.80;5.97;;;;;;;-145.45;100.00;62759.84;5314763;28;20016;-77
2022/05/17 06:27:16;;;;;;;19.30;6.07;;;;;;;-145.45;100.00;62759.84;5305215;28;20017;-77
2022/05/17 06:29:47;;;;;;;18.65;5.65;;;;;;;-145.45;100.00;62759.84;5324004;28;20039;-77
2022/05/17 06:32:19;;;;;;;15.85;6.55;;;;;;;-145.45;100.00;62759.84;5323939;28;20472;-76
2022/05/17 06:34:50;;;;;;;16.73;5.97;;;;;;;-145.45;100.00;62759.84;5316106;28;20103;-76
2022/05/17 06:37:21;;;;;;;18.75;6.40;;;;;;;-145.45;100.00;62759.84;5313503;28;20138;-77
2022/05/17 06:39:53;;;;;;;21.02;6.57;;;;;;;-145.45;100.00;62759.84;5305060;28;20044;-76
2022/05/17 06:42:24;;;;;;;18.70;5.50;;;;;;;-145.45;100.00;62759.84;5324156;28;20384;-77
2022/05/17 06:44:56;;;;;;;16.92;6.65;;;;;;;-145.45;100.00;62759.84;5324050;28;20107;-77
2022/05/17 06:47:27;;;;;;;18.92;6.03;;;;;;;-145.45;100.00;62759.84;5322842;28;20028;-76
2022/05/17 06:49:58;;;;;;;14.60;6.20;;;;;;;-145.45;100.00;62759.84;5302429;28;20028;-77
2022/05/17 06:52:30;;;;;;;14.98;6.25;;;;;;;-145.45;100.00;62759.84;5324126;27;20964;-77
2022/05/17 06:55:01;;;;;;;11.73;5.45;;;;;;;-145.45;100.00;62759.84;5327112;28;20027;-77
2022/05/17 06:57:33;;;;;;;11.32;5.25;;;;;;;-145.45;100.00;62759.84;5328203;28;20024;-77
2022/05/17 07:00:05;;;;;;;11.65;5.50;;;;;;;-145.45;100.00;62759.84;5327909;28;20024;-77
2022/05/17 07:02:36;;;;;;;16.42;5.75;;;;;;;-145.45;100.00;62759.84;5326953;28;20028;-77
2022/05/17 07:05:09;;;;;;;14.70;5.82;;;;;;;-145.45;100.00;62759.84;5313172;28;20023;-77
2022/05/17 07:07:40;;;;;;;23.52;6.80;;;;;;;-145.45;100.00;62759.84;5332054;27;20106;-77
2022/05/17 07:13:08;;;;;;;15.90;6.63;;;;;;;-145.45;100.00;62759.84;5327319;28;20024;-76
2022/05/17 07:15:45;;;;;;;13.77;6.97;;;;;;;-145.45;100.00;62759.84;5326492;28;20379;-77
2022/05/17 07:18:23;;;;;;;12.27;6.65;;;;;;;-145.45;100.00;62759.84;5326258;28;20422;-78
2022/05/17 07:20:54;;;;;;;13.43;5.90;;;;;;;-145.45;100.00;62759.84;5307383;28;20103;-79
2022/05/17 07:23:26;;;;;;;10.88;5.50;;;;;;;-145.45;100.00;62759.84;5308833;28;20544;-79
2022/05/17 07:25:58;;;;;;;11.30;5.22;;;;;;;-145.45;100.00;62759.84;5326831;28;20024;-80
2022/05/17 07:28:29;;;;;;;15.88;8.02;;;;;;;-145.45;100.00;62759.84;5326830;28;20024;-80
2022/05/17 07:31:00;;;;;;;15.75;7.63;;;;;;;-145.45;100.00;62759.84;5325967;28;20067;-79
2022/05/17 07:33:32;;;;;;;17.77;8.10;;;;;;;-145.45;100.00;62759.84;5326873;28;20027;-79
2022/05/17 07:36:04;;;;;;;17.20;7.55;;;;;;;-145.45;100.00;62759.84;5325713;28;20040;-79
2022/05/17 07:38:36;;;;;;;16.83;7.63;;;;;;;-145.45;100.00;62759.84;5327000;28;20012;-78
2022/05/17 07:41:08;;;;;;;14.07;7.97;;;;;;;-145.45;100.00;62759.84;5327003;28;20085;-78
2022/05/17 07:43:39;;;;;;;17.10;8.68;;;;;;;-145.45;100.00;62759.84;5327423;28;20032;-78
2022/05/17 07:46:10;;;;;;;13.45;7.20;;;;;;;-145.45;100.00;62759.84;5313069;28;43353;-78
2022/05/17 07:48:41;;;;;;;13.98;6.93;;;;;;;-145.45;100.00;62759.84;5321283;28;20355;-77
2022/05/17 07:51:13;;;;;;;12.38;6.15;;;;;;;-145.45;100.00;62759.84;5325968;28;20036;-78
2022/05/17 07:53:44;;;;;;;16.20;7.25;;;;;;;-145.45;100.00;62759.84;5327511;28;20086;-78
2022/05/17 07:56:15;;;;;;;14.50;6.97;;;;;;;-145.45;100.00;62759.84;5308209;28;20028;-77
2022/05/17 07:58:46;;;;;;;14.43;6.95;;;;;;;-145.45;100.00;62759.84;5326995;28;20020;-78
2022/05/17 08:01:18;;;;;;;18.35;7.28;;;;;;;-145.45;100.00;62759.84;5326486;28;20423;-77
2022/05/17 08:03:49;;;;;;;12.15;6.88;;;;;;;-145.45;100.00;62759.84;5326247;27;20062;-78
2022/05/17 08:06:20;;;;;;;15.30;6.75;;;;;;;-145.45;100.00;62759.84;5324822;28;20433;-78
2022/05/17 08:08:52;;;;;;;17.08;6.93;;;;;;;-145.45;100.00;62759.84;5326581;27;20036;-78
2022/05/17 08:11:24;;;;;;;15.35;6.75;;;;;;;-145.45;100.00;62759.84;5326844;28;20055;-78
2022/05/17 08:13:55;;;;;;;14.80;6.13;;;;;;;-145.45;100.00;62759.84;5326463;28;20098;-78
2022/05/17 08:16:26;;;;;;;13.10;5.88;;;;;;;-145.45;100.00;62759.84;5326321;28;20157;-78
2022/05/17 08:18:58;;;;;;;11.32;6.63;;;;;;;-145.45;100.00;62759.84;5324965;28;20406;-78
2022/05/17 08:21:29;;;;;;;16.83;6.72;;;;;;;-145.45;100.00;62759.84;5326755;28;20028;-78
2022/05/17 08:24:01;;;;;;;11.27;5.07;;;;;;;-145.45;100.00;62759.84;5303432;28;20025;-78
2022/05/17 08:29:22;;;;;;;14.25;6.72;;;;;;;-145.45;100.00;62759.84;5304457;28;20132;-78
2022/05/17 08:34:44;;;;;;;14.05;6.60;;;;;;;-145.45;100.00;62759.84;5305643;28;20036;-78
2022/05/17 08:37:15;;;;;;;14.90;6.85;;;;;;;-145.45;100.00;62759.84;5286533;28;20298;-78
2022/05/17 08:39:46;;;;;;;15.00;5.97;;;;;;;-145.45;100.00;62759.84;5304668;28;20461;-78
2022/05/17 08:42:29;;;;;;;9.35;5.18;;;;;;;-145.45;100.00;62759.84;5301137;28;20386;-78
2022/05/17 08:45:08;;;;;;;12.77;5.53;;;;;;;-145.45;100.00;62759.84;5304880;28;20477;-78
2022/05/17 08:47:57;;;;;;;14.20;5.70;;;;;;;-145.45;100.00;62759.84;5309532;28;20067;-78
2022/05/17 08:50:36;;;;;;;12.70;5.75;;;;;;;-145.45;100.00;62759.84;5321208;28;20068;-78
2022/05/17 08:53:15;;;;;;;15.23;5.70;;;;;;;-145.45;100.00;62759.84;5325676;28;20024;-78
2022/05/17 08:55:49;;;;;;;14.38;5.50;;;;;;;-145.45;100.00;62759.84;5325647;28;20020;-78
2022/05/17 08:58:26;;;;;;;12.18;5.75;;;;;;;-145.45;100.00;62759.84;5326205;28;20030;-78
2022/05/17 09:01:12;;;;;;;14.98;5.53;;;;;;;-145.45;100.00;62759.84;5325329;28;20039;-78
2022/05/17 09:04:14;;;;;;;11.75;5.60;;;;;;;-145.45;100.00;62759.84;5322703;28;20032;-79
2022/05/17 09:07:00;;;;;;;12.00;5.45;;;;;;;-145.45;100.00;62759.84;5306647;28;20020;-78
2022/05/17 09:09:38;;;;;;;13.65;6.28;;;;;;;-145.45;100.00;62759.84;5325514;27;20048;-78
2022/05/17 09:12:22;;;;;;;13.90;6.53;;;;;;;-145.45;100.00;62759.84;5327075;28;20028;-78
2022/05/17 09:14:58;;;;;;;14.57;6.85;;;;;;;-145.45;100.00;62759.84;5325151;28;20024;-78
2022/05/17 09:17:30;;;;;;;16.15;7.47;;;;;;;-145.45;100.00;62759.84;5305928;28;20024;-78
2022/05/17 09:20:03;;;;;;;17.02;6.75;;;;;;;-145.45;100.00;62759.84;5307060;28;20012;-79
2022/05/17 09:22:35;;;;;;;18.75;7.25;;;;;;;-145.45;100.00;62759.84;5299794;28;20029;-79
2022/05/17 09:25:20;;;;;;;20.17;7.38;;;;;;;-145.45;100.00;62759.84;5310924;28;20052;-78
2022/05/17 09:27:53;;;;;;;13.85;6.15;;;;;;;-145.45;100.00;62759.84;5305151;28;20481;-78
2022/05/17 09:30:33;;;;;;;10.05;5.38;;;;;;;-145.45;100.00;62759.84;5306232;28;20025;-78
2022/05/17 09:33:18;;;;;;;9.15;4.63;;;;;;;-145.45;100.00;62759.84;5304354;28;20024;-79
2022/05/17 09:35:57;;;;;;;11.00;4.90;;;;;;;-145.45;100.00;62759.84;5303719;28;20031;-78
2022/05/17 09:38:30;;;;;;;12.23;4.57;;;;;;;-145.45;100.00;62759.84;5321061;28;20507;-79
2022/05/17 09:41:07;;;;;;;10.90;4.22;;;;;;;-145.45;100.00;62759.84;5324952;28;20078;-78
2022/05/17 09:43:51;;;;;;;9.35;4.50;;;;;;;-145.45;100.00;62759.84;5324904;28;20325;-79
2022/05/17 09:46:29;;;;;;;8.57;3.47;;;;;;;-145.45;100.00;62759.84;5310199;28;20032;-78
2022/05/17 09:54:48;;;;;;;12.07;3.97;;;;;;;-145.45;100.00;62759.84;5324065;28;20020;-79
2022/05/17 09:57:30;;;;;;;8.55;3.72;;;;;;;-145.45;100.00;62759.84;5323231;28;20530;-79
2022/05/17 10:00:12;;;;;;;6.07;2.85;;;;;;;-145.45;100.00;62759.84;5324571;28;20027;-79
2022/05/17 10:02:55;;;;;;;8.18;3.22;;;;;;;-145.45;100.00;62759.84;5323741;28;20373;-78
2022/05/17 10:05:43;;;;;;;7.72;3.30;;;;;;;-145.45;100.00;62759.84;5324077;28;20100;-78
2022/05/17 10:08:14;;;;;;;6.50;2.30;;;;;;;-145.45;100.00;62759.84;5323974;27;20047;-78
2022/05/17 10:11:00;;;;;;;7.63;2.90;;;;;;;-145.45;100.00;62759.84;5324168;28;20032;-78
2022/05/17 10:13:39;;;;;;;7.20;2.17;;;;;;;-145.45;100.00;62759.84;5324335;28;20101;-79
2022/05/17 10:16:21;;;;;;;5.40;3.13;;;;;;;-145.45;100.00;62759.84;5323780;28;20027;-78
2022/05/17 10:19:17;;;;;;;9.32;2.70;;;;;;;-145.45;100.00;62759.84;5323362;28;20023;-78
2022/05/17 10:22:01;;;;;;;8.00;2.15;;;;;;;-145.45;100.00;62759.84;5302192;28;20028;-79
2022/05/17 10:24:46;;;;;;;8.60;2.72;;;;;;;-145.45;100.00;62759.84;5288801;28;20021;-78
2022/05/17 10:27:43;;;;;;;6.53;2.93;;;;;;;-145.45;100.00;62759.84;5315568;27;20066;-78
2022/05/17 10:30:22;;;;;;;11.93;2.97;;;;;;;-145.45;100.00;62759.84;5327273;28;20047;-78
2022/05/17 10:33:02;;;;;;;8.02;3.15;;;;;;;-145.45;100.00;62759.84;5327118;28;20021;-78
2022/05/17 10:35:47;;;;;;;7.60;3.17;;;;;;;-145.45;100.00;62759.84;5304086;28;20141;-78
2022/05/17 10:38:26;;;;;;;12.50;3.63;;;;;;;-145.45;100.00;62759.84;5307172;28;20029;-78
2022/05/17 10:40:57;;;;;;;7.97;3.05;;;;;;;-145.45;100.00;62759.84;5306044;28;20025;-78
2022/05/17 10:43:35;;;;;;;9.77;2.63;;;;;;;-145.45;100.00;62759.84;5306728;28;20365;-78
2022/05/17 10:46:11;;;;;;;7.57;2.67;;;;;;;-145.45;100.00;62759.84;5287362;28;20020;-78
2022/05/17 10:48:58;;;;;;;5.20;2.17;;;;;;;-145.45;100.00;62759.84;5306220;28;20020;-78
2022/05/17 10:51:56;;;;;;;6.45;2.45;;;;;;;-145.45;100.00;62759.84;5293169;28;20043;-78
2022/05/17 10:54:46;;;;;;;8.85;2.50;;;;;;;-145.45;100.00;62759.84;5308499;28;20408;-78
2022/05/17 10:57:32;;;;;;;5.38;2.88;;;;;;;-145.45;100.00;62759.84;5327218;28;20020;-78
2022/05/17 11:00:14;;;;;;;6.18;2.67;;;;;;;-145.45;100.00;62759.84;5308478;28;20060;-78
2022/05/17 11:03:07;;;;;;;5.85;2.90;;;;;;;-145.45;100.00;62759.84;5327264;28;20020;-79
2022/05/17 11:06:09;;;;;;;7.07;2.60;;;;;;;-145.45;100.00;62759.84;5326393;28;20151;-78
2022/05/17 11:09:07;;;;;;;9.77;2.92;;;;;;;-145.45;100.00;62759.84;5305805;28;20083;-78
2022/05/17 11:11:50;;;;;;;10.23;3.10;;;;;;;-145.45;100.00;62759.84;5305826;28;20484;-78
2022/05/17 11:14:32;;;;;;;9.23;3.38;;;;;;;-145.45;100.00;62759.84;5305598;28;20358;-79
2022/05/17 11:17:12;;;;;;;9.85;2.90;;;;;;;-145.45;100.00;62759.84;5305069;28;20538;-79
2022/05/17 11:19:52;;;;;;;9.90;3.85;;;;;;;-145.45;100.00;62759.84;5305335;28;20020;-78
2022/05/17 11:22:30;;;;;;;8.57;3.55;;;;;;;-145.45;100.00;62759.84;5305235;28;20452;-79
2022/05/17 11:25:14;;;;;;;10.95;4.32;;;;;;;-145.45;100.00;62759.84;5319338;28;20039;-79
2022/05/17 11:28:08;;;;;;;9.52;3.88;;;;;;;-145.45;100.00;62759.84;5326979;28;20031;-79
2022/05/17 11:30:55;;;;;;;11.35;4.43;;;;;;;-145.45;100.00;62759.84;5324508;28;24074;-78
2022/05/17 11:33:35;;;;;;;7.85;3.80;;;;;;;-145.45;100.00;62759.84;5327304;28;20384;-79
2022/05/17 11:36:13;;;;;;;9.05;4.18;;;;;;;-145.45;100.00;62759.84;5324650;28;20022;-78
2022/05/17 11:38:47;;;;;;;8.15;3.55;;;;;;;-145.45;100.00;62759.84;5305131;28;20108;-79
2022/05/17 11:41:19;;;;;;;12.25;4.10;;;;;;;-145.45;100.00;62759.84;5304891;28;20101;-79
2022/05/17 11:43:54;;;;;;;7.60;3.77;;;;;;;-145.45;100.00;62759.84;5305071;28;20062;-79
2022/05/17 11:46:28;;;;;;;11.25;4.15;;;;;;;-145.45;100.00;62759.84;5305070;28;20103;-79
2022/05/17 11:49:11;;;;;;;8.10;2.88;;;;;;;-145.45;100.00;62759.84;5305122;28;20462;-79
2022/05/17 11:51:58;;;;;;;8.88;3.00;;;;;;;-145.45;100.00;62759.84;5309744;28;37506;-79
2022/05/17 11:54:45;;;;;;;10.98;3.88;;;;;;;-145.45;100.00;62759.84;5325568;28;30807;-78